Denver, Colorado
Traffic Map
Current Weather Conditions
Denver, Colorado
Clear
Clear
47°
Feels Like: 42°
Wind Chill: 42° Ceiling: Unl
Heat Index: 47° Visibility: 10mi
Dew Point: 43° Wind: 13mph
Humidity: 86% Direction: 190° (S)
Pressure: 30.15in Gusts: 0mph
Raw Report DataKBKF 021158Z 19011KT 10SM CLR 09/06 A3015 RMK AO2A SLP150 T00860063 10137 20080 57007
Traffic Incident Summary
Active as of:
Severity:
Category:
InformationThere was an issue retrieving the traffic information for this location. Please try a different location or try again shortly.
Advertisements
Track Severe Weather on mobile